sensor_id;sensor_type;location;lat;lon;timestamp;pressure;altitude;pressure_sealevel;temperature;humidity
5455;BME280;2750;49.050;9.250;2023-05-23T00:04:35;98558.69;;;19.43;97.59
5455;BME280;2750;49.050;9.250;2023-05-23T00:09:36;98556.25;;;19.51;97.32
5455;BME280;2750;49.050;9.250;2023-05-23T00:14:39;98555.34;;;19.41;98.17
5455;BME280;2750;49.050;9.250;2023-05-23T00:19:41;98551.59;;;19.34;98.11
5455;BME280;2750;49.050;9.250;2023-05-23T00:24:44;98546.41;;;19.23;99.30
5455;BME280;2750;49.050;9.250;2023-05-23T00:29:47;98548.13;;;19.34;99.07
5455;BME280;2750;49.050;9.250;2023-05-23T00:34:48;98548.38;;;19.31;99.25
5455;BME280;2750;49.050;9.250;2023-05-23T00:39:53;98563.44;;;19.49;98.66
5455;BME280;2750;49.050;9.250;2023-05-23T00:44:56;98571.78;;;19.34;99.46
5455;BME280;2750;49.050;9.250;2023-05-23T00:49:57;98571.69;;;19.15;100.00
5455;BME280;2750;49.050;9.250;2023-05-23T00:54:59;98585.00;;;19.43;98.72
5455;BME280;2750;49.050;9.250;2023-05-23T01:00:02;98585.06;;;19.53;98.27
5455;BME280;2750;49.050;9.250;2023-05-23T01:05:04;98579.63;;;19.45;98.20
5455;BME280;2750;49.050;9.250;2023-05-23T01:10:07;98588.09;;;19.48;98.38
5455;BME280;2750;49.050;9.250;2023-05-23T01:15:12;98585.78;;;19.34;98.89
5455;BME280;2750;49.050;9.250;2023-05-23T01:20:20;98589.94;;;19.37;99.35
5455;BME280;2750;49.050;9.250;2023-05-23T01:25:27;98587.38;;;19.16;100.00
5455;BME280;2750;49.050;9.250;2023-05-23T01:30:39;98593.78;;;19.23;100.00
5455;BME280;2750;49.050;9.250;2023-05-23T01:35:42;98588.63;;;19.22;100.00
5455;BME280;2750;49.050;9.250;2023-05-23T01:40:43;98584.78;;;19.46;98.44
5455;BME280;2750;49.050;9.250;2023-05-23T01:45:47;98587.19;;;19.38;98.81
5455;BME280;2750;49.050;9.250;2023-05-23T01:50:50;98586.66;;;19.14;99.76
5455;BME280;2750;49.050;9.250;2023-05-23T01:55:52;98577.72;;;19.47;98.20
5455;BME280;2750;49.050;9.250;2023-05-23T02:00:55;98594.13;;;19.39;98.49
5455;BME280;2750;49.050;9.250;2023-05-23T02:05:56;98599.75;;;19.55;97.61
5455;BME280;2750;49.050;9.250;2023-05-23T02:10:58;98590.03;;;19.86;96.59
5455;BME280;2750;49.050;9.250;2023-05-23T02:16:01;98593.78;;;19.93;95.63
5455;BME280;2750;49.050;9.250;2023-05-23T02:21:03;98591.53;;;19.79;96.15
5455;BME280;2750;49.050;9.250;2023-05-23T02:26:04;98596.88;;;19.98;94.60
5455;BME280;2750;49.050;9.250;2023-05-23T02:31:07;98603.25;;;19.96;95.21
5455;BME280;2750;49.050;9.250;2023-05-23T02:36:09;98615.69;;;19.84;95.48
5455;BME280;2750;49.050;9.250;2023-05-23T02:41:10;98616.03;;;20.00;95.26
5455;BME280;2750;49.050;9.250;2023-05-23T02:46:13;98622.41;;;20.08;95.36
5455;BME280;2750;49.050;9.250;2023-05-23T02:51:15;98623.19;;;20.38;94.33
5455;BME280;2750;49.050;9.250;2023-05-23T02:56:16;98625.56;;;20.51;93.58
5455;BME280;2750;49.050;9.250;2023-05-23T03:01:19;98625.44;;;20.72;92.86
5455;BME280;2750;49.050;9.250;2023-05-23T03:06:20;98620.44;;;20.88;91.84
5455;BME280;2750;49.050;9.250;2023-05-23T03:11:22;98621.13;;;20.90;91.95
5455;BME280;2750;49.050;9.250;2023-05-23T03:16:25;98625.44;;;20.72;92.32
5455;BME280;2750;49.050;9.250;2023-05-23T03:21:26;98629.19;;;20.69;92.13
5455;BME280;2750;49.050;9.250;2023-05-23T03:26:28;98635.03;;;20.73;91.64
5455;BME280;2750;49.050;9.250;2023-05-23T03:31:31;98618.91;;;20.76;91.72
5455;BME280;2750;49.050;9.250;2023-05-23T03:36:32;98627.81;;;20.65;91.76
5455;BME280;2750;49.050;9.250;2023-05-23T03:41:35;98637.22;;;20.68;91.80
5455;BME280;2750;49.050;9.250;2023-05-23T03:46:37;98646.25;;;20.75;91.92
5455;BME280;2750;49.050;9.250;2023-05-23T03:51:39;98645.97;;;20.68;92.43
5455;BME280;2750;49.050;9.250;2023-05-23T03:56:40;98653.88;;;20.59;92.63
5455;BME280;2750;49.050;9.250;2023-05-23T04:01:43;98650.81;;;20.63;92.89
5455;BME280;2750;49.050;9.250;2023-05-23T04:06:45;98649.31;;;20.80;92.26
5455;BME280;2750;49.050;9.250;2023-05-23T04:11:47;98649.03;;;20.64;92.47
5455;BME280;2750;49.050;9.250;2023-05-23T04:16:49;98655.00;;;20.46;93.45
5455;BME280;2750;49.050;9.250;2023-05-23T04:21:51;98663.03;;;20.45;93.85
5455;BME280;2750;49.050;9.250;2023-05-23T04:26:53;98659.69;;;20.33;94.04
5455;BME280;2750;49.050;9.250;2023-05-23T04:31:56;98657.13;;;20.22;94.32
5455;BME280;2750;49.050;9.250;2023-05-23T04:36:58;98656.41;;;20.20;93.86
5455;BME280;2750;49.050;9.250;2023-05-23T04:42:01;98661.47;;;20.33;93.82
5455;BME280;2750;49.050;9.250;2023-05-23T04:47:05;98660.66;;;20.42;93.43
5455;BME280;2750;49.050;9.250;2023-05-23T04:52:08;98666.41;;;20.76;92.30
5455;BME280;2750;49.050;9.250;2023-05-23T04:57:09;98674.53;;;20.44;92.92
5455;BME280;2750;49.050;9.250;2023-05-23T05:02:12;98672.63;;;20.75;92.20
5455;BME280;2750;49.050;9.250;2023-05-23T05:07:14;98670.13;;;20.83;91.66
5455;BME280;2750;49.050;9.250;2023-05-23T05:12:16;98682.53;;;21.11;90.92
5455;BME280;2750;49.050;9.250;2023-05-23T05:17:18;98681.13;;;21.07;91.09
5455;BME280;2750;49.050;9.250;2023-05-23T05:22:20;98676.13;;;20.94;91.79
5455;BME280;2750;49.050;9.250;2023-05-23T05:27:22;98679.72;;;21.03;91.23
5455;BME280;2750;49.050;9.250;2023-05-23T05:32:25;98683.09;;;21.15;90.38
5455;BME280;2750;49.050;9.250;2023-05-23T05:37:28;98687.25;;;21.27;90.06
5455;BME280;2750;49.050;9.250;2023-05-23T05:42:30;98687.78;;;21.50;89.13
5455;BME280;2750;49.050;9.250;2023-05-23T05:47:33;98672.66;;;21.79;87.70
5455;BME280;2750;49.050;9.250;2023-05-23T05:52:36;98678.72;;;22.80;84.19
5455;BME280;2750;49.050;9.250;2023-05-23T05:57:39;98681.59;;;22.60;83.58
5455;BME280;2750;49.050;9.250;2023-05-23T06:02:42;98688.72;;;22.05;85.73
5455;BME280;2750;49.050;9.250;2023-05-23T06:07:43;98696.41;;;22.53;84.53
5455;BME280;2750;49.050;9.250;2023-05-23T06:12:45;98698.97;;;22.17;84.93
5455;BME280;2750;49.050;9.250;2023-05-23T06:17:48;98700.00;;;21.97;86.44
5455;BME280;2750;49.050;9.250;2023-05-23T06:22:50;98712.75;;;21.65;86.91
5455;BME280;2750;49.050;9.250;2023-05-23T06:27:52;98718.78;;;21.38;88.06
5455;BME280;2750;49.050;9.250;2023-05-23T06:32:54;98728.94;;;21.23;87.46
5455;BME280;2750;49.050;9.250;2023-05-23T06:37:56;98728.53;;;20.49;90.49
5455;BME280;2750;49.050;9.250;2023-05-23T06:42:57;98741.91;;;20.27;90.59
5455;BME280;2750;49.050;9.250;2023-05-23T06:48:00;98743.59;;;20.87;89.14
5455;BME280;2750;49.050;9.250;2023-05-23T06:53:02;98741.56;;;22.14;84.17
5455;BME280;2750;49.050;9.250;2023-05-23T06:58:03;98740.38;;;22.81;82.61
5455;BME280;2750;49.050;9.250;2023-05-23T07:03:06;98757.84;;;22.10;83.24
5455;BME280;2750;49.050;9.250;2023-05-23T07:08:08;98768.06;;;21.66;85.03
5455;BME280;2750;49.050;9.250;2023-05-23T07:13:11;98765.31;;;21.58;84.11
5455;BME280;2750;49.050;9.250;2023-05-23T07:18:13;98770.06;;;21.26;85.24
5455;BME280;2750;49.050;9.250;2023-05-23T07:23:15;98765.19;;;22.53;80.94
5455;BME280;2750;49.050;9.250;2023-05-23T07:28:18;98760.09;;;22.42;80.38
5455;BME280;2750;49.050;9.250;2023-05-23T07:33:22;98775.31;;;21.35;82.09
5455;BME280;2750;49.050;9.250;2023-05-23T07:38:25;98765.97;;;21.99;80.39
5455;BME280;2750;49.050;9.250;2023-05-23T07:43:26;98765.84;;;22.27;79.86
5455;BME280;2750;49.050;9.250;2023-05-23T07:48:29;98779.75;;;21.64;81.10
5455;BME280;2750;49.050;9.250;2023-05-23T07:53:31;98777.81;;;21.27;81.89
5455;BME280;2750;49.050;9.250;2023-05-23T07:58:32;98783.50;;;22.36;79.26
5455;BME280;2750;49.050;9.250;2023-05-23T08:03:35;98793.09;;;22.37;77.88
5455;BME280;2750;49.050;9.250;2023-05-23T08:08:37;98794.66;;;22.58;77.25
5455;BME280;2750;49.050;9.250;2023-05-23T08:13:38;98795.53;;;22.12;78.25
5455;BME280;2750;49.050;9.250;2023-05-23T08:18:41;98796.97;;;21.77;78.24
5455;BME280;2750;49.050;9.250;2023-05-23T08:23:42;98799.91;;;21.84;77.85
5455;BME280;2750;49.050;9.250;2023-05-23T08:28:45;98792.22;;;22.10;78.18
5455;BME280;2750;49.050;9.250;2023-05-23T08:33:48;98821.47;;;21.51;78.18
5455;BME280;2750;49.050;9.250;2023-05-23T08:38:50;98815.41;;;20.91;79.48
5455;BME280;2750;49.050;9.250;2023-05-23T08:43:52;98829.53;;;21.30;78.74
5455;BME280;2750;49.050;9.250;2023-05-23T08:48:55;98810.91;;;21.79;75.62
5455;BME280;2750;49.050;9.250;2023-05-23T08:53:59;98816.00;;;22.56;74.94
5455;BME280;2750;49.050;9.250;2023-05-23T08:59:03;98829.44;;;22.35;74.00
5455;BME280;2750;49.050;9.250;2023-05-23T09:04:06;98836.50;;;21.98;74.69
5455;BME280;2750;49.050;9.250;2023-05-23T09:09:07;98835.72;;;22.34;72.60
5455;BME280;2750;49.050;9.250;2023-05-23T09:14:09;98842.88;;;22.05;74.35
5455;BME280;2750;49.050;9.250;2023-05-23T09:19:12;98849.19;;;22.41;73.11
5455;BME280;2750;49.050;9.250;2023-05-23T09:24:14;98851.50;;;21.30;76.07
5455;BME280;2750;49.050;9.250;2023-05-23T09:29:18;98876.78;;;22.19;73.27
5455;BME280;2750;49.050;9.250;2023-05-23T09:34:22;98868.19;;;21.79;74.02
5455;BME280;2750;49.050;9.250;2023-05-23T09:39:23;98855.03;;;22.45;71.49
5455;BME280;2750;49.050;9.250;2023-05-23T09:44:25;98863.97;;;22.24;72.02
5455;BME280;2750;49.050;9.250;2023-05-23T09:49:28;98861.63;;;22.21;72.13
5455;BME280;2750;49.050;9.250;2023-05-23T09:54:29;98849.00;;;23.16;69.82
5455;BME280;2750;49.050;9.250;2023-05-23T09:59:33;98859.16;;;22.10;71.16
5455;BME280;2750;49.050;9.250;2023-05-23T10:04:39;98872.53;;;21.99;70.83
5455;BME280;2750;49.050;9.250;2023-05-23T10:09:43;98869.88;;;21.99;71.10
5455;BME280;2750;49.050;9.250;2023-05-23T10:14:51;98865.53;;;22.73;69.58
5455;BME280;2750;49.050;9.250;2023-05-23T10:19:58;98868.38;;;22.53;68.52
5455;BME280;2750;49.050;9.250;2023-05-23T10:25:02;98869.16;;;22.16;70.12
5455;BME280;2750;49.050;9.250;2023-05-23T10:30:05;98886.53;;;21.90;70.51
5455;BME280;2750;49.050;9.250;2023-05-23T10:35:15;98884.59;;;22.30;70.12
5455;BME280;2750;49.050;9.250;2023-05-23T10:40:26;98870.91;;;22.81;68.74
5455;BME280;2750;49.050;9.250;2023-05-23T10:45:39;98873.53;;;22.91;68.39
5455;BME280;2750;49.050;9.250;2023-05-23T10:50:43;98875.59;;;22.97;68.09
5455;BME280;2750;49.050;9.250;2023-05-23T10:55:48;98869.72;;;23.03;68.49
5455;BME280;2750;49.050;9.250;2023-05-23T11:00:51;98865.38;;;23.29;67.65
5455;BME280;2750;49.050;9.250;2023-05-23T11:05:54;98860.97;;;23.38;67.66
5455;BME280;2750;49.050;9.250;2023-05-23T11:10:59;98861.81;;;24.09;66.81
5455;BME280;2750;49.050;9.250;2023-05-23T11:16:23;98865.97;;;24.12;66.25
5455;BME280;2750;49.050;9.250;2023-05-23T11:21:28;98864.50;;;23.92;66.75
5455;BME280;2750;49.050;9.250;2023-05-23T11:26:30;98866.47;;;24.59;67.28
5455;BME280;2750;49.050;9.250;2023-05-23T11:31:36;98858.59;;;24.75;65.45
5455;BME280;2750;49.050;9.250;2023-05-23T11:36:39;98852.25;;;24.42;65.20
5455;BME280;2750;49.050;9.250;2023-05-23T11:41:41;98857.53;;;24.34;65.28
5455;BME280;2750;49.050;9.250;2023-05-23T11:46:58;98858.44;;;25.10;63.68
5455;BME280;2750;49.050;9.250;2023-05-23T11:52:01;98855.47;;;24.54;63.76
5455;BME280;2750;49.050;9.250;2023-05-23T11:57:03;98853.91;;;23.11;67.08
5455;BME280;2750;49.050;9.250;2023-05-23T12:02:05;98852.03;;;23.49;66.73
5455;BME280;2750;49.050;9.250;2023-05-23T12:07:08;98848.69;;;24.25;65.67
5455;BME280;2750;49.050;9.250;2023-05-23T12:12:11;98848.88;;;23.89;65.27
5455;BME280;2750;49.050;9.250;2023-05-23T12:17:13;98854.00;;;24.08;65.12
5455;BME280;2750;49.050;9.250;2023-05-23T12:22:21;98850.47;;;23.99;65.15
5455;BME280;2750;49.050;9.250;2023-05-23T12:27:27;98849.66;;;24.50;64.35
5455;BME280;2750;49.050;9.250;2023-05-23T12:32:30;98843.38;;;23.47;65.25
5455;BME280;2750;49.050;9.250;2023-05-23T12:37:33;98850.38;;;23.38;66.47
5455;BME280;2750;49.050;9.250;2023-05-23T12:42:48;98852.00;;;22.30;68.29
5455;BME280;2750;49.050;9.250;2023-05-23T12:47:49;98856.06;;;22.71;67.53
5455;BME280;2750;49.050;9.250;2023-05-23T12:52:52;98848.91;;;23.08;66.77
5455;BME280;2750;49.050;9.250;2023-05-23T12:57:54;98847.78;;;23.11;66.19
5455;BME280;2750;49.050;9.250;2023-05-23T13:02:55;98852.56;;;23.07;67.28
5455;BME280;2750;49.050;9.250;2023-05-23T13:07:58;98847.06;;;22.91;67.16
5455;BME280;2750;49.050;9.250;2023-05-23T13:13:00;98846.66;;;22.86;67.52
5455;BME280;2750;49.050;9.250;2023-05-23T13:18:01;98846.91;;;23.38;66.20
5455;BME280;2750;49.050;9.250;2023-05-23T13:23:05;98836.97;;;23.49;66.82
5455;BME280;2750;49.050;9.250;2023-05-23T13:28:07;98834.47;;;23.38;65.95
5455;BME280;2750;49.050;9.250;2023-05-23T13:33:08;98830.13;;;24.25;64.48
5455;BME280;2750;49.050;9.250;2023-05-23T13:38:11;98829.41;;;24.83;63.45
5455;BME280;2750;49.050;9.250;2023-05-23T13:43:13;98818.50;;;24.86;63.25
5455;BME280;2750;49.050;9.250;2023-05-23T13:48:14;98822.53;;;24.98;63.89
5455;BME280;2750;49.050;9.250;2023-05-23T13:53:17;98825.00;;;25.58;61.36
5455;BME280;2750;49.050;9.250;2023-05-23T13:58:20;98818.97;;;25.48;61.48
5455;BME280;2750;49.050;9.250;2023-05-23T14:03:22;98825.16;;;25.97;59.47
5455;BME280;2750;49.050;9.250;2023-05-23T14:08:25;98817.81;;;25.99;60.35
5455;BME280;2750;49.050;9.250;2023-05-23T14:13:26;98826.19;;;25.72;61.03
5455;BME280;2750;49.050;9.250;2023-05-23T14:18:28;98829.69;;;24.64;61.92
5455;BME280;2750;49.050;9.250;2023-05-23T14:23:30;98822.13;;;25.43;61.07
5455;BME280;2750;49.050;9.250;2023-05-23T14:28:32;98821.16;;;25.68;60.21
5455;BME280;2750;49.050;9.250;2023-05-23T14:33:33;98820.50;;;24.24;63.29
5455;BME280;2750;49.050;9.250;2023-05-23T14:38:36;98828.69;;;23.88;64.57
5455;BME280;2750;49.050;9.250;2023-05-23T14:43:38;98826.59;;;23.56;65.93
5455;BME280;2750;49.050;9.250;2023-05-23T14:48:40;98823.38;;;23.70;65.59
5455;BME280;2750;49.050;9.250;2023-05-23T14:53:43;98830.06;;;23.11;68.77
5455;BME280;2750;49.050;9.250;2023-05-23T14:58:45;98825.81;;;23.63;67.24
5455;BME280;2750;49.050;9.250;2023-05-23T15:03:46;98826.97;;;23.61;67.18
5455;BME280;2750;49.050;9.250;2023-05-23T15:08:49;98823.84;;;23.83;66.74
5455;BME280;2750;49.050;9.250;2023-05-23T15:13:51;98826.03;;;23.88;66.23
5455;BME280;2750;49.050;9.250;2023-05-23T15:18:52;98823.72;;;25.12;63.40
5455;BME280;2750;49.050;9.250;2023-05-23T15:23:55;98829.97;;;25.69;61.50
5455;BME280;2750;49.050;9.250;2023-05-23T15:28:58;98813.34;;;26.24;60.12
5455;BME280;2750;49.050;9.250;2023-05-23T15:33:59;98826.59;;;25.43;61.07
5455;BME280;2750;49.050;9.250;2023-05-23T15:39:02;98816.63;;;25.29;61.41
5455;BME280;2750;49.050;9.250;2023-05-23T15:44:05;98811.25;;;24.28;63.48
5455;BME280;2750;49.050;9.250;2023-05-23T15:49:06;98816.06;;;23.64;65.76
5455;BME280;2750;49.050;9.250;2023-05-23T15:54:09;98830.44;;;22.34;69.91
5455;BME280;2750;49.050;9.250;2023-05-23T15:59:11;98831.31;;;21.77;72.01
5455;BME280;2750;49.050;9.250;2023-05-23T16:04:12;98827.31;;;21.64;71.54
5455;BME280;2750;49.050;9.250;2023-05-23T16:09:15;98831.22;;;21.98;70.76
5455;BME280;2750;49.050;9.250;2023-05-23T16:14:17;98826.59;;;21.90;70.22
5455;BME280;2750;49.050;9.250;2023-05-23T16:19:18;98822.81;;;22.68;68.22
5455;BME280;2750;49.050;9.250;2023-05-23T16:24:21;98821.25;;;22.19;69.54
5455;BME280;2750;49.050;9.250;2023-05-23T16:29:23;98812.25;;;22.12;69.40
5455;BME280;2750;49.050;9.250;2023-05-23T16:34:25;98821.38;;;22.27;69.21
5455;BME280;2750;49.050;9.250;2023-05-23T16:39:28;98833.25;;;22.14;70.63
5455;BME280;2750;49.050;9.250;2023-05-23T16:44:30;98817.00;;;22.82;69.24
5455;BME280;2750;49.050;9.250;2023-05-23T16:49:31;98812.84;;;24.21;66.45
5455;BME280;2750;49.050;9.250;2023-05-23T16:54:34;98818.78;;;24.15;65.65
5455;BME280;2750;49.050;9.250;2023-05-23T16:59:36;98832.44;;;22.50;68.98
5455;BME280;2750;49.050;9.250;2023-05-23T17:04:37;98826.75;;;21.99;70.78
5455;BME280;2750;49.050;9.250;2023-05-23T17:09:40;98829.31;;;22.27;70.88
5455;BME280;2750;49.050;9.250;2023-05-23T17:14:42;98833.97;;;21.87;72.16
5455;BME280;2750;49.050;9.250;2023-05-23T17:19:43;98831.22;;;22.45;70.25
5455;BME280;2750;49.050;9.250;2023-05-23T17:24:46;98831.34;;;22.43;69.78
5455;BME280;2750;49.050;9.250;2023-05-23T17:29:48;98827.84;;;22.15;70.71
5455;BME280;2750;49.050;9.250;2023-05-23T17:34:49;98839.41;;;21.76;72.08
5455;BME280;2750;49.050;9.250;2023-05-23T17:39:52;98842.88;;;20.79;74.27
5455;BME280;2750;49.050;9.250;2023-05-23T17:44:54;98854.09;;;19.79;77.43
5455;BME280;2750;49.050;9.250;2023-05-23T17:49:55;98857.78;;;20.08;76.59
5455;BME280;2750;49.050;9.250;2023-05-23T17:54:59;98874.00;;;19.72;77.22
5455;BME280;2750;49.050;9.250;2023-05-23T18:00:01;98874.84;;;19.72;77.18
5455;BME280;2750;49.050;9.250;2023-05-23T18:05:03;98875.06;;;19.26;77.67
5455;BME280;2750;49.050;9.250;2023-05-23T18:10:08;98882.66;;;18.86;78.97
5455;BME280;2750;49.050;9.250;2023-05-23T18:15:09;98888.34;;;19.47;77.89
5455;BME280;2750;49.050;9.250;2023-05-23T18:20:12;98890.41;;;19.64;77.01
5455;BME280;2750;49.050;9.250;2023-05-23T18:25:15;98896.59;;;19.42;78.39
5455;BME280;2750;49.050;9.250;2023-05-23T18:30:18;98902.16;;;18.95;79.82
5455;BME280;2750;49.050;9.250;2023-05-23T18:35:20;98900.97;;;18.88;80.42
5455;BME280;2750;49.050;9.250;2023-05-23T18:40:23;98905.19;;;18.44;80.42
5455;BME280;2750;49.050;9.250;2023-05-23T18:45:26;98913.63;;;18.72;80.00
5455;BME280;2750;49.050;9.250;2023-05-23T18:50:27;98911.81;;;19.28;77.89
5455;BME280;2750;49.050;9.250;2023-05-23T18:55:30;98934.97;;;18.45;79.64
5455;BME280;2750;49.050;9.250;2023-05-23T19:00:32;98943.91;;;18.42;79.87
5455;BME280;2750;49.050;9.250;2023-05-23T19:05:33;98959.09;;;18.39;79.99
5455;BME280;2750;49.050;9.250;2023-05-23T19:10:37;98967.38;;;18.56;78.93
5455;BME280;2750;49.050;9.250;2023-05-23T19:15:38;98969.59;;;18.96;77.37
5455;BME280;2750;49.050;9.250;2023-05-23T19:20:40;98986.19;;;18.74;76.44
5455;BME280;2750;49.050;9.250;2023-05-23T19:25:43;98991.19;;;18.55;76.68
5455;BME280;2750;49.050;9.250;2023-05-23T19:30:45;98997.13;;;18.22;77.44
5455;BME280;2750;49.050;9.250;2023-05-23T19:35:46;98993.94;;;18.41;77.31
5455;BME280;2750;49.050;9.250;2023-05-23T19:40:49;98994.72;;;18.19;77.84
5455;BME280;2750;49.050;9.250;2023-05-23T19:45:51;99010.59;;;17.94;78.82
5455;BME280;2750;49.050;9.250;2023-05-23T19:50:52;99014.47;;;17.77;79.25
5455;BME280;2750;49.050;9.250;2023-05-23T19:55:55;99014.78;;;17.73;79.88
5455;BME280;2750;49.050;9.250;2023-05-23T20:00:57;99020.25;;;17.08;82.23
5455;BME280;2750;49.050;9.250;2023-05-23T20:05:59;99031.34;;;17.24;82.04
5455;BME280;2750;49.050;9.250;2023-05-23T20:11:02;99024.13;;;16.77;83.21
5455;BME280;2750;49.050;9.250;2023-05-23T20:16:03;99046.34;;;16.84;83.00
5455;BME280;2750;49.050;9.250;2023-05-23T20:21:06;99033.69;;;16.78;83.54
5455;BME280;2750;49.050;9.250;2023-05-23T20:26:09;99039.88;;;16.50;84.08
5455;BME280;2750;49.050;9.250;2023-05-23T20:31:11;99053.72;;;16.40;84.41
5455;BME280;2750;49.050;9.250;2023-05-23T20:36:13;99051.66;;;16.57;84.01
5455;BME280;2750;49.050;9.250;2023-05-23T20:41:20;99060.97;;;16.22;84.13
5455;BME280;2750;49.050;9.250;2023-05-23T20:46:22;99065.84;;;16.14;84.13
5455;BME280;2750;49.050;9.250;2023-05-23T20:51:25;99073.75;;;16.26;83.75
5455;BME280;2750;49.050;9.250;2023-05-23T20:56:28;99078.78;;;16.03;84.13
5455;BME280;2750;49.050;9.250;2023-05-23T21:01:30;99093.56;;;16.04;83.40
5455;BME280;2750;49.050;9.250;2023-05-23T21:06:31;99084.19;;;16.14;82.91
5455;BME280;2750;49.050;9.250;2023-05-23T21:11:34;99098.81;;;16.04;83.22
5455;BME280;2750;49.050;9.250;2023-05-23T21:16:36;99101.34;;;16.05;83.11
5455;BME280;2750;49.050;9.250;2023-05-23T21:21:37;99115.88;;;15.68;83.79
5455;BME280;2750;49.050;9.250;2023-05-23T21:26:40;99127.44;;;15.93;82.54
5455;BME280;2750;49.050;9.250;2023-05-23T21:31:42;99123.78;;;16.09;82.25
5455;BME280;2750;49.050;9.250;2023-05-23T21:36:44;99121.44;;;16.05;81.36
5455;BME280;2750;49.050;9.250;2023-05-23T21:41:46;99115.94;;;15.95;81.78
5455;BME280;2750;49.050;9.250;2023-05-23T21:46:48;99118.63;;;16.08;81.49
5455;BME280;2750;49.050;9.250;2023-05-23T21:51:50;99121.81;;;15.99;80.78
5455;BME280;2750;49.050;9.250;2023-05-23T21:56:52;99115.97;;;16.22;80.02
5455;BME280;2750;49.050;9.250;2023-05-23T22:01:54;99134.53;;;16.05;80.07
5455;BME280;2750;49.050;9.250;2023-05-23T22:06:55;99138.25;;;16.15;80.03
5455;BME280;2750;49.050;9.250;2023-05-23T22:11:59;99123.25;;;16.31;79.77
5455;BME280;2750;49.050;9.250;2023-05-23T22:17:00;99132.94;;;16.43;79.23
5455;BME280;2750;49.050;9.250;2023-05-23T22:22:03;99133.94;;;16.14;79.58
5455;BME280;2750;49.050;9.250;2023-05-23T22:27:06;99137.56;;;16.25;79.44
5455;BME280;2750;49.050;9.250;2023-05-23T22:32:07;99135.31;;;16.60;78.30
5455;BME280;2750;49.050;9.250;2023-05-23T22:37:09;99130.63;;;16.65;78.47
5455;BME280;2750;49.050;9.250;2023-05-23T22:42:12;99132.50;;;16.22;80.21
5455;BME280;2750;49.050;9.250;2023-05-23T22:47:13;99130.53;;;15.85;80.77
5455;BME280;2750;49.050;9.250;2023-05-23T22:52:14;99133.25;;;15.98;80.92
5455;BME280;2750;49.050;9.250;2023-05-23T22:57:18;99136.97;;;15.79;81.52
5455;BME280;2750;49.050;9.250;2023-05-23T23:02:19;99130.94;;;15.79;81.43
5455;BME280;2750;49.050;9.250;2023-05-23T23:07:21;99134.56;;;15.48;83.42
5455;BME280;2750;49.050;9.250;2023-05-23T23:12:23;99131.50;;;15.70;82.84
5455;BME280;2750;49.050;9.250;2023-05-23T23:17:25;99113.75;;;15.75;81.63
5455;BME280;2750;49.050;9.250;2023-05-23T23:22:26;99123.72;;;15.40;81.69
5455;BME280;2750;49.050;9.250;2023-05-23T23:27:29;99126.28;;;14.98;80.13
5455;BME280;2750;49.050;9.250;2023-05-23T23:32:31;99120.94;;;14.85;79.89
5455;BME280;2750;49.050;9.250;2023-05-23T23:37:33;99116.66;;;14.68;79.39
5455;BME280;2750;49.050;9.250;2023-05-23T23:42:36;99118.78;;;14.92;78.04
5455;BME280;2750;49.050;9.250;2023-05-23T23:47:37;99127.06;;;14.54;77.46
5455;BME280;2750;49.050;9.250;2023-05-23T23:52:39;99122.22;;;14.48;76.54
5455;BME280;2750;49.050;9.250;2023-05-23T23:57:42;99116.66;;;14.23;77.43
